Pagrindinis puslapis
METAR-TAF:

METAR-TAF

Oro uostai :

Kangerlussuaq, Grenlandija

platuma: 67-01N, ilguma: 050-42W, Aukštis: 50 m

Dabartinis oras

Ataskaita buvo paskelbta 33 minutes, ne 09:50 UTC
Vėjas 5 kt iš Vakarų/Pietvakarių, svyruoja nuo Pietų/Pietvakarių ir Vakarų
Temperatūra 5°C
Drėgmė 65%
Slėgis 1011 hPa
Matomumas 10 km arba daugiau

METAR: BGSF 310950Z AUTO 24005KT 210V280 9999NDV NCD 05/M01 Q1011

Laikas: 08:23 (10:23 UTC)

Prognozė

Ataskaita buvo paskelbta 1 valandą ir 15 minutes, ne 09:08 UTC
Prognozė galioja nuo 31 metu 10 UTC su 31 metu 17 UTC
Vėjas 8 kt nuo kintamojo kryptimis
Matomumas 10 km arba daugiau
Mažai debesys ne aukštis 6000 ft

TAF: BGSF 310908Z 3110/3117 VRB08KT 9999 FEW060

Orai ataskaitas ir orų prognozės (METAR, TAF).

turimą stotys yra geltonos ir raudonos taškus žemėlapyje.

Perkelti pele per norėdami pamatyti stoties vardą.

Tada spustelėkite, norėdami matyti oro stebėjimo ir prognozės.

Norėdami pakeisti žemėlapį: spustelėkite ant žalios mygtukų su juodo kryžiaus žemyn,; žalią mygtuką su brūkšneliu, jei norite nutolinti; arba žalių rodyklių gretimoms žemėlapius.


METAR-TAF: